CEB212 RPVE-RPLL
Flight info
| Callsign | CEB212 |
|---|---|
| Flight time | 0h 44m |
| Altitude | 24000 |
| Route | MINOR8A MINOR B473 LAIYA LAIYA7R |
| Aircraft | A20N/M-SDE2E3FGHIRWXY/LB1 |
Departure
| Time | 2026-04-25 14:13 |
|---|---|
| Airport | Godofredo P. Ramos Airport (RPVE) |
Arrival
| Time | 2026-04-25 14:57 |
|---|---|
| Airport | Ninoy Aquino International Airport (RPLL) |
| Time | Latitude | Longitude | Altitude | Speed | Heading |
|---|---|---|---|---|---|
| 2026-04-25 13:38 | 11.92657 | 121.96337 | 29 ft | 0 kts | 153° |
| 2026-04-25 13:56 | 11.92658 | 121.96336 | 29 ft | 2 kts | 153° |
| 2026-04-25 13:56 | 11.92673 | 121.96330 | 29 ft | 2 kts | 161° |
| 2026-04-25 13:57 | 11.92689 | 121.96327 | 29 ft | 2 kts | 185° |
| 2026-04-25 13:57 | 11.92695 | 121.96327 | 31 ft | 2 kts | 200° |
| 2026-04-25 13:57 | 11.92708 | 121.96341 | 30 ft | 0 kts | 243° |
| 2026-04-25 14:02 | 11.92707 | 121.96338 | 27 ft | 1 kts | 243° |
| 2026-04-25 14:02 | 11.92702 | 121.96328 | 32 ft | 2 kts | 242° |
| 2026-04-25 14:02 | 11.92696 | 121.96317 | 29 ft | 3 kts | 242° |
| 2026-04-25 14:03 | 11.92681 | 121.96288 | 29 ft | 4 kts | 242° |
| 2026-04-25 14:03 | 11.92666 | 121.96260 | 29 ft | 5 kts | 243° |
| 2026-04-25 14:03 | 11.92650 | 121.96227 | 29 ft | 6 kts | 243° |
| 2026-04-25 14:03 | 11.92657 | 121.96199 | 29 ft | 4 kts | 316° |
| 2026-04-25 14:04 | 11.92679 | 121.96184 | 29 ft | 4 kts | 332° |
| 2026-04-25 14:04 | 11.92707 | 121.96170 | 29 ft | 5 kts | 332° |
| 2026-04-25 14:04 | 11.92739 | 121.96153 | 29 ft | 0 kts | 333° |
| 2026-04-25 14:06 | 11.92740 | 121.96152 | 29 ft | 1 kts | 334° |
| 2026-04-25 14:06 | 11.92747 | 121.96149 | 29 ft | 0 kts | 334° |
| 2026-04-25 14:10 | 11.92799 | 121.96101 | 29 ft | 13 kts | 283° |
| 2026-04-25 14:10 | 11.92772 | 121.96026 | 30 ft | 13 kts | 243° |
| 2026-04-25 14:11 | 11.92721 | 121.95925 | 30 ft | 20 kts | 243° |
| 2026-04-25 14:11 | 11.92639 | 121.95762 | 30 ft | 32 kts | 243° |
| 2026-04-25 14:11 | 11.92527 | 121.95539 | 27 ft | 37 kts | 242° |
| 2026-04-25 14:11 | 11.92405 | 121.95304 | 27 ft | 38 kts | 240° |
| 2026-04-25 14:12 | 11.92291 | 121.95097 | 29 ft | 28 kts | 240° |
| 2026-04-25 14:12 | 11.92239 | 121.95015 | 30 ft | 3 kts | 304° |
| 2026-04-25 14:12 | 11.92265 | 121.95021 | 30 ft | 5 kts | 53° |
| 2026-04-25 14:12 | 11.92322 | 121.95129 | 29 ft | 51 kts | 62° |
| 2026-04-25 14:13 | 11.92611 | 121.95702 | 30 ft | 125 kts | 63° |
| 2026-04-25 14:13 | 11.93076 | 121.96622 | 295 ft | 152 kts | 63° |
| 2026-04-25 14:13 | 11.93559 | 121.97589 | 973 ft | 150 kts | 63° |
| 2026-04-25 14:13 | 11.94044 | 121.98561 | 1710 ft | 166 kts | 63° |
| 2026-04-25 14:14 | 11.94607 | 121.99690 | 2232 ft | 193 kts | 64° |
| 2026-04-25 14:14 | 11.95254 | 122.00985 | 2897 ft | 211 kts | 64° |
| 2026-04-25 14:14 | 11.96003 | 122.02314 | 3888 ft | 218 kts | 55° |
| 2026-04-25 14:14 | 11.97144 | 122.03355 | 4830 ft | 232 kts | 36° |
| 2026-04-25 14:15 | 11.98635 | 122.04196 | 5450 ft | 255 kts | 29° |
| 2026-04-25 14:15 | 11.99164 | 122.04461 | 5691 ft | 260 kts | 28° |
| 2026-04-25 14:15 | 12.01967 | 122.05830 | 7111 ft | 273 kts | 27° |
| 2026-04-25 14:15 | 12.03679 | 122.06675 | 8012 ft | 278 kts | 27° |
| 2026-04-25 14:16 | 12.05442 | 122.07554 | 8927 ft | 283 kts | 27° |
| 2026-04-25 14:16 | 12.07217 | 122.08445 | 9900 ft | 287 kts | 27° |
| 2026-04-25 14:16 | 12.09055 | 122.09371 | 10567 ft | 301 kts | 27° |
| 2026-04-25 14:16 | 12.11006 | 122.10358 | 10954 ft | 323 kts | 27° |
| 2026-04-25 14:17 | 12.13044 | 122.11389 | 11530 ft | 335 kts | 26° |
| 2026-04-25 14:17 | 12.15143 | 122.12451 | 12243 ft | 342 kts | 26° |
| 2026-04-25 14:17 | 12.17298 | 122.13541 | 12995 ft | 348 kts | 26° |
| 2026-04-25 14:17 | 12.19476 | 122.14644 | 13534 ft | 346 kts | 26° |
| 2026-04-25 14:18 | 12.21601 | 122.15721 | 13449 ft | 331 kts | 26° |
| 2026-04-25 14:18 | 12.23638 | 122.16753 | 13057 ft | 334 kts | 26° |
| 2026-04-25 14:18 | 12.25772 | 122.17835 | 12946 ft | 345 kts | 26° |
| 2026-04-25 14:18 | 12.27942 | 122.18935 | 12977 ft | 348 kts | 26° |
| 2026-04-25 14:19 | 12.30088 | 122.20024 | 13001 ft | 347 kts | 26° |
| 2026-04-25 14:19 | 12.32269 | 122.21106 | 13001 ft | 347 kts | 24° |
| 2026-04-25 14:19 | 12.34544 | 122.21858 | 13007 ft | 347 kts | 11° |
| 2026-04-25 14:19 | 12.36963 | 122.21996 | 13007 ft | 347 kts | 355° |
| 2026-04-25 14:20 | 12.39324 | 122.21442 | 13005 ft | 347 kts | 339° |
| 2026-04-25 14:20 | 12.40766 | 122.20722 | 13006 ft | 347 kts | 329° |
| 2026-04-25 14:20 | 12.43431 | 122.18950 | 13004 ft | 347 kts | 325° |
| 2026-04-25 14:20 | 12.45407 | 122.17556 | 13004 ft | 347 kts | 325° |
| 2026-04-25 14:21 | 12.47406 | 122.16147 | 13004 ft | 347 kts | 325° |
| 2026-04-25 14:21 | 12.49392 | 122.14755 | 13007 ft | 347 kts | 325° |
| 2026-04-25 14:21 | 12.51395 | 122.13356 | 13007 ft | 347 kts | 325° |
| 2026-04-25 14:21 | 12.53371 | 122.11979 | 13007 ft | 347 kts | 325° |
| 2026-04-25 14:22 | 12.55377 | 122.10582 | 13004 ft | 347 kts | 325° |
| 2026-04-25 14:22 | 12.57368 | 122.09197 | 13005 ft | 347 kts | 325° |
| 2026-04-25 14:22 | 12.59363 | 122.07809 | 13004 ft | 347 kts | 325° |
| 2026-04-25 14:22 | 12.61366 | 122.06417 | 13011 ft | 347 kts | 326° |
| 2026-04-25 14:23 | 12.63347 | 122.05038 | 13007 ft | 347 kts | 325° |
| 2026-04-25 14:23 | 12.65350 | 122.03645 | 13007 ft | 347 kts | 325° |
| 2026-04-25 14:23 | 12.67358 | 122.02248 | 13007 ft | 347 kts | 325° |
| 2026-04-25 14:23 | 12.69351 | 122.00861 | 13007 ft | 347 kts | 326° |
| 2026-04-25 14:24 | 12.71335 | 121.99480 | 13011 ft | 347 kts | 325° |
| 2026-04-25 14:24 | 12.73345 | 121.98080 | 13010 ft | 347 kts | 325° |
| 2026-04-25 14:24 | 12.75334 | 121.96696 | 13013 ft | 347 kts | 325° |
| 2026-04-25 14:24 | 12.77318 | 121.95314 | 13008 ft | 347 kts | 325° |
| 2026-04-25 14:25 | 12.79326 | 121.93915 | 13012 ft | 347 kts | 325° |
| 2026-04-25 14:25 | 12.81323 | 121.92524 | 13013 ft | 347 kts | 325° |
| 2026-04-25 14:25 | 12.83336 | 121.91122 | 13027 ft | 348 kts | 325° |
| 2026-04-25 14:25 | 12.83986 | 121.90668 | 13083 ft | 350 kts | 325° |
| 2026-04-25 14:26 | 12.87390 | 121.88296 | 14194 ft | 357 kts | 325° |
| 2026-04-25 14:26 | 12.89463 | 121.86851 | 14989 ft | 360 kts | 325° |
| 2026-04-25 14:26 | 12.91531 | 121.85409 | 15745 ft | 364 kts | 325° |
| 2026-04-25 14:26 | 12.93626 | 121.83948 | 16503 ft | 368 kts | 325° |
| 2026-04-25 14:27 | 12.95773 | 121.82450 | 17240 ft | 373 kts | 326° |
| 2026-04-25 14:27 | 12.97945 | 121.80934 | 17944 ft | 377 kts | 326° |
| 2026-04-25 14:27 | 13.00108 | 121.79425 | 18570 ft | 382 kts | 325° |
| 2026-04-25 14:27 | 13.02301 | 121.77894 | 19129 ft | 386 kts | 325° |
| 2026-04-25 14:28 | 13.04544 | 121.76328 | 19704 ft | 390 kts | 325° |
| 2026-04-25 14:28 | 13.06809 | 121.74746 | 20290 ft | 394 kts | 325° |
| 2026-04-25 14:28 | 13.09063 | 121.73171 | 20871 ft | 397 kts | 324° |
| 2026-04-25 14:28 | 13.11372 | 121.71558 | 21468 ft | 401 kts | 324° |
| 2026-04-25 14:29 | 13.13671 | 121.69951 | 22074 ft | 405 kts | 324° |
| 2026-04-25 14:29 | 13.16015 | 121.68312 | 22676 ft | 408 kts | 324° |
| 2026-04-25 14:29 | 13.18386 | 121.66654 | 23289 ft | 412 kts | 324° |
| 2026-04-25 14:29 | 13.20756 | 121.64996 | 23749 ft | 415 kts | 324° |
| 2026-04-25 14:30 | 13.23151 | 121.63321 | 23925 ft | 416 kts | 324° |
| 2026-04-25 14:30 | 13.27917 | 121.59986 | 23965 ft | 418 kts | 324° |
| 2026-04-25 14:30 | 13.30336 | 121.58292 | 23965 ft | 418 kts | 324° |
| 2026-04-25 14:31 | 13.32746 | 121.56605 | 23962 ft | 418 kts | 324° |
| 2026-04-25 14:31 | 13.35132 | 121.54934 | 23964 ft | 418 kts | 324° |
| 2026-04-25 14:31 | 13.37543 | 121.53245 | 23944 ft | 417 kts | 324° |
| 2026-04-25 14:31 | 13.39930 | 121.51573 | 23565 ft | 412 kts | 324° |
| 2026-04-25 14:32 | 13.42297 | 121.49914 | 22967 ft | 409 kts | 324° |
| 2026-04-25 14:32 | 13.44617 | 121.48287 | 22425 ft | 404 kts | 324° |
| 2026-04-25 14:32 | 13.46946 | 121.46654 | 21873 ft | 400 kts | 324° |
| 2026-04-25 14:32 | 13.49221 | 121.45058 | 21306 ft | 397 kts | 324° |
| 2026-04-25 14:33 | 13.51499 | 121.43460 | 20727 ft | 393 kts | 324° |
| 2026-04-25 14:33 | 13.53734 | 121.41891 | 20242 ft | 390 kts | 324° |
| 2026-04-25 14:33 | 13.55970 | 121.40322 | 20021 ft | 389 kts | 324° |
| 2026-04-25 14:33 | 13.58194 | 121.38720 | 19966 ft | 389 kts | 323° |
| 2026-04-25 14:34 | 13.60375 | 121.37103 | 19970 ft | 389 kts | 323° |
| 2026-04-25 14:34 | 13.62576 | 121.35462 | 19969 ft | 388 kts | 323° |
| 2026-04-25 14:34 | 13.64740 | 121.33848 | 19969 ft | 388 kts | 323° |
| 2026-04-25 14:34 | 13.66936 | 121.32210 | 19969 ft | 388 kts | 323° |
| 2026-04-25 14:35 | 13.69120 | 121.30581 | 19963 ft | 388 kts | 323° |
| 2026-04-25 14:35 | 13.71318 | 121.28941 | 19966 ft | 388 kts | 323° |
| 2026-04-25 14:35 | 13.73491 | 121.27321 | 19966 ft | 388 kts | 323° |
| 2026-04-25 14:35 | 13.75697 | 121.25677 | 19966 ft | 388 kts | 323° |
| 2026-04-25 14:36 | 13.77864 | 121.24060 | 19969 ft | 388 kts | 322° |
| 2026-04-25 14:36 | 13.80048 | 121.22431 | 19966 ft | 386 kts | 322° |
| 2026-04-25 14:36 | 13.82233 | 121.20801 | 19858 ft | 383 kts | 322° |
| 2026-04-25 14:36 | 13.84371 | 121.19205 | 19332 ft | 381 kts | 322° |
| 2026-04-25 14:37 | 13.86506 | 121.17626 | 18772 ft | 379 kts | 325° |
| 2026-04-25 14:37 | 13.88909 | 121.16497 | 18215 ft | 378 kts | 345° |
| 2026-04-25 14:37 | 13.91492 | 121.16280 | 17606 ft | 377 kts | 5° |
| 2026-04-25 14:37 | 13.94030 | 121.16978 | 17025 ft | 375 kts | 23° |
| 2026-04-25 14:38 | 13.96367 | 121.18156 | 16458 ft | 372 kts | 27° |
| 2026-04-25 14:38 | 13.98630 | 121.19377 | 15893 ft | 368 kts | 27° |
| 2026-04-25 14:38 | 14.00900 | 121.20605 | 15360 ft | 365 kts | 27° |
| 2026-04-25 14:38 | 14.03118 | 121.21803 | 14829 ft | 362 kts | 27° |
| 2026-04-25 14:39 | 14.05339 | 121.23001 | 14271 ft | 359 kts | 27° |
| 2026-04-25 14:39 | 14.11741 | 121.26431 | 13015 ft | 351 kts | 27° |
| 2026-04-25 14:40 | 14.12446 | 121.26808 | 12986 ft | 352 kts | 27° |
| 2026-04-25 14:40 | 14.16070 | 121.28743 | 12951 ft | 350 kts | 27° |
| 2026-04-25 14:40 | 14.18203 | 121.29882 | 12508 ft | 347 kts | 27° |
| 2026-04-25 14:40 | 14.20364 | 121.31030 | 11961 ft | 344 kts | 26° |
| 2026-04-25 14:41 | 14.22606 | 121.31731 | 11438 ft | 339 kts | 6° |
| 2026-04-25 14:41 | 14.24931 | 121.31524 | 10901 ft | 335 kts | 343° |
| 2026-04-25 14:41 | 14.26989 | 121.30427 | 10366 ft | 332 kts | 321° |
| 2026-04-25 14:41 | 14.28451 | 121.28633 | 9839 ft | 329 kts | 298° |
| 2026-04-25 14:42 | 14.29076 | 121.26443 | 9563 ft | 317 kts | 274° |
| 2026-04-25 14:42 | 14.29082 | 121.25673 | 9489 ft | 312 kts | 266° |
| 2026-04-25 14:42 | 14.28091 | 121.22241 | 9007 ft | 296 kts | 248° |
| 2026-04-25 14:42 | 14.27282 | 121.20281 | 8558 ft | 294 kts | 247° |
| 2026-04-25 14:43 | 14.26472 | 121.18348 | 8100 ft | 292 kts | 247° |
| 2026-04-25 14:43 | 14.25673 | 121.16446 | 7628 ft | 292 kts | 247° |
| 2026-04-25 14:43 | 14.24859 | 121.14516 | 7180 ft | 291 kts | 247° |
| 2026-04-25 14:43 | 14.24066 | 121.12624 | 6754 ft | 289 kts | 248° |
| 2026-04-25 14:44 | 14.23264 | 121.10717 | 6300 ft | 288 kts | 247° |
| 2026-04-25 14:44 | 14.22487 | 121.08844 | 6056 ft | 285 kts | 248° |
| 2026-04-25 14:44 | 14.22035 | 121.06863 | 6019 ft | 284 kts | 268° |
| 2026-04-25 14:44 | 14.22122 | 121.04836 | 6020 ft | 284 kts | 276° |
| 2026-04-25 14:45 | 14.22322 | 121.02810 | 6020 ft | 285 kts | 277° |
| 2026-04-25 14:45 | 14.22527 | 121.00783 | 6014 ft | 278 kts | 277° |
| 2026-04-25 14:45 | 14.22721 | 120.98864 | 5997 ft | 265 kts | 276° |
| 2026-04-25 14:45 | 14.22916 | 120.96991 | 5993 ft | 261 kts | 277° |
| 2026-04-25 14:46 | 14.23111 | 120.95119 | 5753 ft | 261 kts | 277° |
| 2026-04-25 14:46 | 14.23308 | 120.93292 | 5493 ft | 254 kts | 277° |
| 2026-04-25 14:46 | 14.23508 | 120.91515 | 5264 ft | 243 kts | 277° |
| 2026-04-25 14:46 | 14.23706 | 120.89805 | 4919 ft | 236 kts | 277° |
| 2026-04-25 14:47 | 14.24033 | 120.88186 | 4464 ft | 233 kts | 290° |
| 2026-04-25 14:47 | 14.24231 | 120.87655 | 4290 ft | 234 kts | 293° |
| 2026-04-25 14:47 | 14.25383 | 120.85095 | 3493 ft | 236 kts | 296° |
| 2026-04-25 14:47 | 14.26096 | 120.83565 | 3107 ft | 236 kts | 296° |
| 2026-04-25 14:48 | 14.26939 | 120.82140 | 2999 ft | 236 kts | 316° |
| 2026-04-25 14:48 | 14.28337 | 120.81301 | 2995 ft | 229 kts | 347° |
| 2026-04-25 14:48 | 14.29814 | 120.81027 | 2992 ft | 206 kts | 356° |
| 2026-04-25 14:48 | 14.31248 | 120.80864 | 2998 ft | 208 kts | 357° |
| 2026-04-25 14:49 | 14.32684 | 120.80716 | 2985 ft | 210 kts | 358° |
| 2026-04-25 14:49 | 14.34147 | 120.80557 | 2989 ft | 209 kts | 357° |
| 2026-04-25 14:49 | 14.35554 | 120.80404 | 2987 ft | 192 kts | 357° |
| 2026-04-25 14:49 | 14.36795 | 120.80259 | 2980 ft | 171 kts | 357° |
| 2026-04-25 14:50 | 14.37547 | 120.80170 | 2991 ft | 157 kts | 357° |
| 2026-04-25 14:50 | 14.38786 | 120.80519 | 2990 ft | 136 kts | 38° |
| 2026-04-25 14:50 | 14.39496 | 120.81136 | 2990 ft | 136 kts | 51° |
| 2026-04-25 14:50 | 14.40063 | 120.81903 | 2987 ft | 134 kts | 61° |
| 2026-04-25 14:51 | 14.40526 | 120.82737 | 2993 ft | 131 kts | 64° |
| 2026-04-25 14:51 | 14.40944 | 120.83525 | 3003 ft | 122 kts | 65° |
| 2026-04-25 14:51 | 14.41295 | 120.84189 | 2997 ft | 121 kts | 65° |
| 2026-04-25 14:51 | 14.41692 | 120.84941 | 2992 ft | 121 kts | 64° |
| 2026-04-25 14:52 | 14.42091 | 120.85690 | 2984 ft | 121 kts | 64° |
| 2026-04-25 14:52 | 14.42501 | 120.86454 | 2943 ft | 122 kts | 64° |
| 2026-04-25 14:52 | 14.42913 | 120.87214 | 2808 ft | 121 kts | 65° |
| 2026-04-25 14:52 | 14.43052 | 120.87470 | 2748 ft | 120 kts | 65° |
| 2026-04-25 14:53 | 14.43586 | 120.88465 | 2540 ft | 119 kts | 65° |
| 2026-04-25 14:53 | 14.43987 | 120.89211 | 2371 ft | 119 kts | 61° |
| 2026-04-25 14:53 | 14.44523 | 120.90205 | 2167 ft | 119 kts | 63° |
| 2026-04-25 14:53 | 14.44925 | 120.90953 | 2010 ft | 119 kts | 63° |
| 2026-04-25 14:54 | 14.45323 | 120.91694 | 1856 ft | 118 kts | 62° |
| 2026-04-25 14:54 | 14.45587 | 120.92185 | 1760 ft | 118 kts | 63° |
| 2026-04-25 14:54 | 14.45985 | 120.92925 | 1614 ft | 118 kts | 64° |
| 2026-04-25 14:54 | 14.46384 | 120.93667 | 1452 ft | 119 kts | 63° |
| 2026-04-25 14:55 | 14.46791 | 120.94424 | 1299 ft | 121 kts | 62° |
| 2026-04-25 14:55 | 14.47195 | 120.95176 | 1138 ft | 118 kts | 63° |
| 2026-04-25 14:55 | 14.47594 | 120.95917 | 994 ft | 118 kts | 62° |
| 2026-04-25 14:55 | 14.47995 | 120.96663 | 850 ft | 120 kts | 60° |
| 2026-04-25 14:56 | 14.48401 | 120.97418 | 712 ft | 120 kts | 61° |
| 2026-04-25 14:56 | 14.48812 | 120.98183 | 553 ft | 123 kts | 60° |
| 2026-04-25 14:56 | 14.49218 | 120.98944 | 417 ft | 124 kts | 61° |
| 2026-04-25 14:56 | 14.49647 | 120.99731 | 225 ft | 122 kts | 62° |
| 2026-04-25 14:57 | 14.50064 | 121.00483 | 88 ft | 115 kts | 62° |
| 2026-04-25 14:57 | 14.50382 | 121.01079 | 71 ft | 60 kts | 61° |
| 2026-04-25 14:57 | 14.50567 | 121.01411 | 71 ft | 52 kts | 60° |
| 2026-04-25 14:57 | 14.50757 | 121.01712 | 64 ft | 48 kts | 42° |
| 2026-04-25 14:58 | 14.50911 | 121.01769 | 68 ft | 4 kts | 271° |
| 2026-04-25 14:58 | 14.50900 | 121.01734 | 71 ft | 5 kts | 242° |
| 2026-04-25 14:58 | 14.50892 | 121.01720 | 63 ft | 0 kts | 240° |
| 2026-04-25 14:59 | 14.50888 | 121.01713 | 63 ft | 4 kts | 240° |
| 2026-04-25 14:59 | 14.50883 | 121.01685 | 64 ft | 3 kts | 278° |
| 2026-04-25 14:59 | 14.50893 | 121.01666 | 68 ft | 3 kts | 309° |
| 2026-04-25 14:59 | 14.50902 | 121.01657 | 65 ft | 0 kts | 316° |
| 2026-04-25 15:00 | 14.50904 | 121.01655 | 71 ft | 2 kts | 317° |
| 2026-04-25 15:00 | 14.50927 | 121.01653 | 64 ft | 3 kts | 18° |
| 2026-04-25 15:00 | 14.50946 | 121.01666 | 67 ft | 4 kts | 36° |
| 2026-04-25 15:01 | 14.50997 | 121.01676 | 68 ft | 11 kts | 338° |
| 2026-04-25 15:01 | 14.51044 | 121.01627 | 71 ft | 9 kts | 315° |
| 2026-04-25 15:01 | 14.51093 | 121.01577 | 64 ft | 11 kts | 315° |
| 2026-04-25 15:01 | 14.51147 | 121.01521 | 66 ft | 12 kts | 314° |
| 2026-04-25 15:02 | 14.51205 | 121.01461 | 67 ft | 12 kts | 316° |
| 2026-04-25 15:02 | 14.51271 | 121.01427 | 68 ft | 10 kts | 16° |
| 2026-04-25 15:02 | 14.51320 | 121.01473 | 67 ft | 9 kts | 54° |
| 2026-04-25 15:02 | 14.51362 | 121.01523 | 69 ft | 9 kts | 43° |
| 2026-04-25 15:03 | 14.51406 | 121.01536 | 65 ft | 4 kts | 330° |
| 2026-04-25 15:03 | 14.51426 | 121.01516 | 72 ft | 5 kts | 315° |
| 2026-04-25 15:03 | 14.51452 | 121.01490 | 65 ft | 6 kts | 315° |
| 2026-04-25 15:03 | 14.51489 | 121.01452 | 67 ft | 12 kts | 315° |
| 2026-04-25 15:04 | 14.51568 | 121.01371 | 72 ft | 18 kts | 315° |
| 2026-04-25 15:04 | 14.51657 | 121.01278 | 65 ft | 19 kts | 314° |
| 2026-04-25 15:04 | 14.51745 | 121.01188 | 64 ft | 18 kts | 315° |
| 2026-04-25 15:04 | 14.51834 | 121.01096 | 69 ft | 18 kts | 315° |
| 2026-04-25 15:05 | 14.51928 | 121.00999 | 70 ft | 20 kts | 316° |
| 2026-04-25 15:05 | 14.52029 | 121.00896 | 64 ft | 21 kts | 314° |
| 2026-04-25 15:05 | 14.52108 | 121.00815 | 69 ft | 11 kts | 315° |
| 2026-04-25 15:06 | 14.52134 | 121.00788 | 70 ft | 0 kts | 315° |
| 2026-04-25 15:07 | 14.52152 | 121.00770 | 68 ft | 5 kts | 315° |
| 2026-04-25 15:07 | 14.52185 | 121.00755 | 68 ft | 5 kts | 3° |
| 2026-04-25 15:07 | 14.52213 | 121.00779 | 72 ft | 5 kts | 64° |
| 2026-04-25 15:07 | 14.52207 | 121.00814 | 68 ft | 5 kts | 127° |
| 2026-04-25 15:08 | 14.52181 | 121.00843 | 70 ft | 6 kts | 134° |
| 2026-04-25 15:08 | 14.52148 | 121.00876 | 68 ft | 7 kts | 136° |
| 2026-04-25 15:08 | 14.52117 | 121.00908 | 64 ft | 5 kts | 136° |
| 2026-04-25 15:08 | 14.52097 | 121.00929 | 70 ft | 4 kts | 135° |
| 2026-04-25 15:09 | 14.52073 | 121.00957 | 72 ft | 4 kts | 116° |
| 2026-04-25 15:09 | 14.52078 | 121.00972 | 68 ft | 1 kts | 48° |
| 2026-04-25 15:09 | 14.52095 | 121.00990 | 65 ft | 2 kts | 44° |
| 2026-04-25 15:10 | 14.52103 | 121.00998 | 67 ft | 1 kts | 44° |
| 2026-04-25 15:10 | 14.52117 | 121.01012 | 68 ft | 7 kts | 45° |
| 2026-04-25 15:10 | 14.52147 | 121.01043 | 66 ft | 0 kts | 45° |